Time;durP1;ratioP1;P1;durP2;ratioP2;P2;SDS_P1;SDS_P2;PMS_P1;PMS_P2;Temp;Humidity;BMP_temperature;BMP_pressure;BME280_temperature;BME280_humidity;BME280_pressure;Samples;Min_cycle;Max_cycle;Signal;HPM_P1;HPM_P2
2021/09/30 00:01:26;;;;;;;1.33;0.80;;;10.80;99.90;;;;;;5110304;28;20294;-74
2021/09/30 00:03:53;;;;;;;3.37;0.87;;;10.80;99.90;;;;;;5110022;28;20202;-74
2021/09/30 00:06:20;;;;;;;1.30;1.00;;;10.80;99.90;;;;;;5110192;28;20205;-74
2021/09/30 00:08:48;;;;;;;2.03;0.97;;;10.80;99.90;;;;;;5110362;28;20212;-74
2021/09/30 00:11:20;;;;;;;1.13;0.93;;;10.70;99.90;;;;;;5109977;28;20210;-74
2021/09/30 00:13:51;;;;;;;0.90;0.80;;;10.80;99.90;;;;;;5110220;28;20199;-74
2021/09/30 00:16:30;;;;;;;1.17;0.87;;;10.80;99.90;;;;;;5110170;28;20194;-75
2021/09/30 00:32:47;;;;;;;0.60;0.60;;;10.70;99.90;;;;;;5109263;28;20194;-74
2021/09/30 00:35:34;;;;;;;1.53;0.70;;;10.60;99.90;;;;;;5109304;28;20259;-74
2021/09/30 00:40:58;;;;;;;2.73;0.87;;;10.50;99.90;;;;;;5108177;28;20240;-74
2021/09/30 00:46:13;;;;;;;1.50;1.00;;;10.50;99.90;;;;;;5108868;28;20197;-73
2021/09/30 00:48:50;;;;;;;0.87;0.87;;;10.60;99.90;;;;;;5109048;28;20299;-73
2021/09/30 00:51:29;;;;;;;1.57;1.10;;;10.60;99.90;;;;;;5109035;28;20222;-72
2021/09/30 01:57:45;;;;;;;1.73;0.90;;;10.60;99.90;;;;;;5091258;28;20198;-74
2021/09/30 02:18:26;;;;;;;3.07;1.10;;;10.40;99.90;;;;;;5091516;28;20236;-73
2021/09/30 02:21:39;;;;;;;0.90;0.90;;;10.30;99.90;;;;;;5091602;28;20754;-74
2021/09/30 02:24:24;;;;;;;1.33;0.90;;;10.30;99.90;;;;;;5091804;28;20207;-74
2021/09/30 03:00:14;;;;;;;3.30;0.97;;;10.30;99.90;;;;;;5071844;28;20268;-74
2021/09/30 03:02:44;;;;;;;1.37;0.93;;;10.20;99.90;;;;;;5089972;28;20210;-75
2021/09/30 03:05:13;;;;;;;1.30;1.00;;;10.20;99.90;;;;;;5090841;28;20199;-75
2021/09/30 03:07:42;;;;;;;1.90;1.03;;;10.20;99.90;;;;;;5086886;28;20617;-74
2021/09/30 03:10:10;;;;;;;1.23;1.07;;;10.20;99.90;;;;;;5087004;28;20272;-74
2021/09/30 03:12:38;;;;;;;1.57;1.00;;;10.20;99.90;;;;;;5087021;28;20206;-74
2021/09/30 03:15:13;;;;;;;3.40;1.10;;;10.20;99.90;;;;;;5086940;28;20264;-74
2021/09/30 03:17:44;;;;;;;2.00;1.07;;;10.20;99.90;;;;;;5086579;28;20199;-75
2021/09/30 03:23:01;;;;;;;3.03;1.30;;;10.30;99.90;;;;;;5086472;28;20205;-75
2021/09/30 03:25:29;;;;;;;1.27;1.00;;;10.30;99.90;;;;;;5087215;28;20219;-75
2021/09/30 03:27:56;;;;;;;2.33;1.20;;;10.30;99.90;;;;;;5086595;28;21043;-75
2021/09/30 03:30:24;;;;;;;1.33;1.20;;;10.20;99.90;;;;;;5086368;28;20264;-75
2021/09/30 03:32:52;;;;;;;2.07;0.97;;;10.30;99.90;;;;;;5086556;28;20275;-74
2021/09/30 03:35:19;;;;;;;1.90;1.40;;;10.20;99.90;;;;;;5085957;28;20677;-75
2021/09/30 03:37:45;;;;;;;3.70;1.37;;;10.30;99.90;;;;;;5086618;28;20206;-74
2021/09/30 03:40:14;;;;;;;3.43;1.60;;;10.20;99.90;;;;;;5086130;28;20236;-74
2021/09/30 03:42:40;;;;;;;3.77;1.20;;;10.20;99.90;;;;;;5086467;28;20279;-74
2021/09/30 03:45:09;;;;;;;1.10;1.10;;;10.20;99.90;;;;;;5086274;28;20214;-75
2021/09/30 03:47:35;;;;;;;1.37;0.90;;;10.20;99.90;;;;;;5086350;28;20227;-75
2021/09/30 03:50:03;;;;;;;1.80;1.10;;;10.30;99.90;;;;;;5086052;28;20223;-74
2021/09/30 03:52:40;;;;;;;2.43;0.90;;;10.20;99.90;;;;;;5086342;28;20229;-74
2021/09/30 03:55:23;;;;;;;3.77;1.50;;;10.20;99.90;;;;;;5085906;28;20195;-75
2021/09/30 03:59:07;;;;;;;2.87;1.03;;;10.20;99.90;;;;;;5086115;28;20199;-74
2021/09/30 04:00:38;;;;;;;1.07;0.87;;;10.20;99.90;;;;;;5091962;28;20206;-74
2021/09/30 04:03:05;;;;;;;1.87;1.10;;;10.10;99.90;;;;;;5103932;28;20202;-74
2021/09/30 04:05:32;;;;;;;2.00;0.90;;;10.10;99.90;;;;;;5100046;28;20198;-73
2021/09/30 04:07:58;;;;;;;2.13;1.30;;;10.20;99.90;;;;;;5097261;28;20199;-73
2021/09/30 04:10:26;;;;;;;2.10;1.00;;;10.20;99.90;;;;;;5096970;28;20206;-73
2021/09/30 04:12:54;;;;;;;1.10;1.00;;;10.20;99.90;;;;;;5097753;28;20234;-74
2021/09/30 04:15:21;;;;;;;1.90;1.20;;;10.20;99.90;;;;;;5100034;28;20198;-74
2021/09/30 04:17:48;;;;;;;1.70;1.33;;;10.20;99.90;;;;;;5096251;28;20247;-74
2021/09/30 04:20:17;;;;;;;2.57;1.00;;;10.20;99.90;;;;;;5093332;28;20257;-74
2021/09/30 04:22:44;;;;;;;1.40;1.30;;;10.10;99.90;;;;;;5101271;28;20279;-74
2021/09/30 04:25:11;;;;;;;3.83;1.03;;;10.10;99.90;;;;;;5099351;28;20268;-74
2021/09/30 04:27:38;;;;;;;1.73;1.07;;;10.10;99.90;;;;;;5099870;28;20206;-74
2021/09/30 04:30:08;;;;;;;4.47;1.33;;;10.20;99.90;;;;;;5093609;28;20684;-74
2021/09/30 04:32:35;;;;;;;2.03;1.07;;;10.20;99.90;;;;;;5099558;28;20287;-74
2021/09/30 04:35:02;;;;;;;2.07;1.03;;;10.20;99.90;;;;;;5096426;28;20210;-74
2021/09/30 04:37:28;;;;;;;2.23;0.93;;;10.10;99.90;;;;;;5102329;28;20305;-74
2021/09/30 04:39:55;;;;;;;1.27;0.87;;;10.10;99.90;;;;;;5093434;28;20608;-74
2021/09/30 04:42:22;;;;;;;1.87;1.00;;;10.00;99.90;;;;;;5098910;28;20233;-74
2021/09/30 04:44:49;;;;;;;1.53;1.00;;;10.00;99.90;;;;;;5099497;28;20197;-74
2021/09/30 04:47:17;;;;;;;4.20;1.30;;;10.00;99.90;;;;;;5097255;28;20210;-74
2021/09/30 04:49:43;;;;;;;2.43;1.40;;;10.00;99.90;;;;;;5098286;28;20257;-74
2021/09/30 04:52:10;;;;;;;1.57;1.10;;;10.00;99.90;;;;;;5096063;28;20199;-74
2021/09/30 04:54:36;;;;;;;2.43;1.40;;;10.00;99.90;;;;;;5099150;28;20199;-74
2021/09/30 04:57:03;;;;;;;1.17;0.90;;;10.00;99.90;;;;;;5098928;28;20623;-74
2021/09/30 04:59:30;;;;;;;2.50;1.00;;;10.10;99.90;;;;;;5094973;28;20246;-74
2021/09/30 05:01:57;;;;;;;2.10;0.90;;;10.10;99.90;;;;;;5095504;28;20226;-74
2021/09/30 05:04:25;;;;;;;2.43;1.00;;;10.10;99.90;;;;;;5097705;28;20579;-74
2021/09/30 05:06:52;;;;;;;1.30;0.90;;;10.10;99.90;;;;;;5099266;28;20225;-74
2021/09/30 05:09:18;;;;;;;4.47;1.00;;;10.10;99.90;;;;;;5095826;28;20259;-74
2021/09/30 05:11:51;;;;;;;1.63;1.40;;;10.10;99.90;;;;;;5095633;28;20218;-74
2021/09/30 05:14:18;;;;;;;2.67;0.90;;;10.10;99.90;;;;;;5097166;28;20242;-74
2021/09/30 05:16:44;;;;;;;1.10;1.00;;;10.10;99.90;;;;;;5096102;28;20233;-74
2021/09/30 05:19:11;;;;;;;3.50;1.90;;;10.10;99.90;;;;;;5095130;28;20216;-74
2021/09/30 05:21:39;;;;;;;2.87;1.27;;;10.20;99.90;;;;;;5094872;28;20227;-74
2021/09/30 05:24:06;;;;;;;1.90;1.00;;;10.20;99.90;;;;;;5097879;28;20234;-74
2021/09/30 05:26:33;;;;;;;1.73;1.37;;;10.20;99.90;;;;;;5094701;28;20290;-74
2021/09/30 05:29:00;;;;;;;2.77;1.37;;;10.20;99.90;;;;;;5100792;28;20194;-78
2021/09/30 05:31:27;;;;;;;2.80;1.83;;;10.30;99.90;;;;;;5098666;28;20198;-78
2021/09/30 05:33:54;;;;;;;3.43;1.80;;;10.40;99.90;;;;;;5094356;28;20624;-77
2021/09/30 05:36:22;;;;;;;2.33;1.37;;;10.40;99.90;;;;;;5088477;28;20207;-74
2021/09/30 05:38:50;;;;;;;2.93;1.20;;;10.40;99.90;;;;;;5087228;28;20206;-74
2021/09/30 05:41:17;;;;;;;2.63;1.10;;;10.40;99.90;;;;;;5087169;28;20806;-73
2021/09/30 05:43:49;;;;;;;0.90;0.90;;;10.40;99.90;;;;;;5097978;28;20882;-74
2021/09/30 05:46:18;;;;;;;1.90;1.00;;;10.40;99.90;;;;;;5100131;28;20206;-74
2021/09/30 05:48:45;;;;;;;1.40;1.23;;;10.30;99.90;;;;;;5095951;28;20196;-74
2021/09/30 05:51:11;;;;;;;1.90;1.20;;;10.30;99.90;;;;;;5095853;28;20708;-74
2021/09/30 05:53:38;;;;;;;1.97;0.80;;;10.30;99.90;;;;;;5097813;28;20198;-74
2021/09/30 05:56:06;;;;;;;1.67;1.30;;;10.40;99.90;;;;;;5093267;28;20274;-74
2021/09/30 05:58:33;;;;;;;1.70;1.23;;;10.40;99.90;;;;;;5093294;28;20583;-74
2021/09/30 06:01:08;;;;;;;2.57;1.00;;;10.30;99.90;;;;;;5097223;28;20678;-74
2021/09/30 06:12:10;;;;;;;1.70;1.00;;;10.40;99.90;;;;;;5095612;28;20679;-74
2021/09/30 06:14:39;;;;;;;3.47;1.20;;;10.40;99.90;;;;;;5098160;28;20248;-74
2021/09/30 06:17:06;;;;;;;1.70;0.90;;;10.50;99.90;;;;;;5095180;28;20226;-74
2021/09/30 06:19:33;;;;;;;1.50;1.00;;;10.50;99.90;;;;;;5093389;28;20203;-73
2021/09/30 06:22:04;;;;;;;2.93;0.80;;;10.50;99.90;;;;;;5087027;28;20270;-73
2021/09/30 06:24:31;;;;;;;2.10;1.00;;;10.50;99.90;;;;;;5087373;28;20226;-73
2021/09/30 06:26:58;;;;;;;1.57;1.10;;;10.50;99.90;;;;;;5087215;28;20726;-73
2021/09/30 06:29:26;;;;;;;3.13;1.13;;;10.60;99.90;;;;;;5087785;28;20203;-73
2021/09/30 06:31:53;;;;;;;2.00;0.93;;;10.50;99.90;;;;;;5087288;28;20256;-73
2021/09/30 06:34:19;;;;;;;2.73;0.93;;;10.50;99.90;;;;;;5087590;28;20268;-73
2021/09/30 06:36:46;;;;;;;2.93;1.20;;;10.50;99.90;;;;;;5087459;28;20253;-73
2021/09/30 06:39:13;;;;;;;3.00;0.90;;;10.50;99.90;;;;;;5089659;28;20203;-73
2021/09/30 06:41:40;;;;;;;2.43;0.93;;;10.50;99.90;;;;;;5090872;28;20689;-74
2021/09/30 06:44:06;;;;;;;3.43;1.13;;;10.60;99.90;;;;;;5091141;28;20206;-73
2021/09/30 06:46:34;;;;;;;2.20;0.80;;;10.60;99.90;;;;;;5091169;28;20295;-73
2021/09/30 06:49:01;;;;;;;1.40;1.00;;;10.60;99.90;;;;;;5090779;28;20404;-73
2021/09/30 06:51:28;;;;;;;2.03;1.10;;;10.60;99.90;;;;;;5090944;28;20287;-73
2021/09/30 06:53:54;;;;;;;2.00;1.00;;;10.60;99.90;;;;;;5090880;28;20280;-73
2021/09/30 06:56:22;;;;;;;3.90;1.50;;;10.70;99.90;;;;;;5090826;28;20264;-73
2021/09/30 06:58:51;;;;;;;2.37;1.30;;;10.70;99.90;;;;;;5096535;28;20225;-74
2021/09/30 07:01:18;;;;;;;1.50;1.20;;;10.70;99.90;;;;;;5110199;28;20206;-74
2021/09/30 07:03:47;;;;;;;1.37;1.10;;;10.60;99.90;;;;;;5110604;28;20852;-73
2021/09/30 07:06:13;;;;;;;2.80;1.10;;;10.70;99.90;;;;;;5110784;28;20202;-73
2021/09/30 07:08:40;;;;;;;3.13;1.30;;;10.70;99.90;;;;;;5110736;28;20210;-73
2021/09/30 07:11:07;;;;;;;1.90;1.07;;;10.70;99.90;;;;;;5110689;28;20202;-73
2021/09/30 07:13:34;;;;;;;2.33;1.40;;;10.70;99.90;;;;;;5110650;28;20560;-73
2021/09/30 07:16:00;;;;;;;1.60;0.80;;;10.70;99.90;;;;;;5110738;28;20206;-73
2021/09/30 07:18:27;;;;;;;2.73;1.10;;;10.70;99.90;;;;;;5110683;28;20276;-74
2021/09/30 07:20:57;;;;;;;0.80;0.80;;;10.80;99.90;;;;;;5110821;28;20569;-75
2021/09/30 07:23:24;;;;;;;2.47;1.53;;;10.80;99.90;;;;;;5110785;28;20241;-74
2021/09/30 07:25:51;;;;;;;1.30;1.10;;;10.90;99.90;;;;;;5110267;28;20243;-74
2021/09/30 07:28:20;;;;;;;1.90;1.40;;;10.90;99.90;;;;;;5101018;28;20237;-74
2021/09/30 07:30:47;;;;;;;1.83;1.20;;;10.90;99.90;;;;;;5094396;28;20209;-73
2021/09/30 07:33:14;;;;;;;3.77;1.30;;;10.90;99.90;;;;;;5099490;28;20604;-73
2021/09/30 07:35:41;;;;;;;2.03;1.20;;;10.90;99.90;;;;;;5099640;28;20191;-74
2021/09/30 07:38:10;;;;;;;1.33;1.00;;;11.00;99.90;;;;;;5096732;28;20226;-74
2021/09/30 07:40:37;;;;;;;2.73;1.20;;;11.00;99.90;;;;;;5099025;28;20291;-74
2021/09/30 07:43:03;;;;;;;1.33;1.03;;;11.00;99.90;;;;;;5097268;27;20292;-74
2021/09/30 07:45:31;;;;;;;2.13;1.30;;;11.00;99.90;;;;;;5097563;28;20656;-74
2021/09/30 07:47:57;;;;;;;4.97;1.50;;;11.10;99.90;;;;;;5098184;28;20606;-74
2021/09/30 07:50:24;;;;;;;2.50;0.90;;;11.10;99.90;;;;;;5098319;28;20222;-74
2021/09/30 07:52:51;;;;;;;3.27;1.33;;;11.10;99.90;;;;;;5096792;28;20194;-74
2021/09/30 07:55:19;;;;;;;2.50;1.13;;;11.10;99.90;;;;;;5098503;28;20290;-74
2021/09/30 07:57:45;;;;;;;1.93;1.30;;;11.20;99.90;;;;;;5096504;28;20619;-74
2021/09/30 08:00:13;;;;;;;2.13;1.30;;;11.20;99.90;;;;;;5096145;28;20226;-73
2021/09/30 08:02:40;;;;;;;3.97;1.27;;;11.30;99.90;;;;;;5098748;28;20226;-73
2021/09/30 08:05:08;;;;;;;2.10;1.00;;;11.30;99.90;;;;;;5093738;28;20256;-74
2021/09/30 08:07:35;;;;;;;0.97;0.97;;;11.30;99.90;;;;;;5089097;28;20714;-73
2021/09/30 08:10:01;;;;;;;4.43;1.40;;;11.30;99.90;;;;;;5088876;28;20661;-74
2021/09/30 08:12:29;;;;;;;2.70;1.40;;;11.30;99.90;;;;;;5089299;28;20206;-73
2021/09/30 08:14:56;;;;;;;2.33;1.00;;;11.40;99.90;;;;;;5089011;28;20206;-73
2021/09/30 08:17:23;;;;;;;5.80;1.10;;;11.50;99.90;;;;;;5088447;28;20673;-74
2021/09/30 08:19:49;;;;;;;1.43;1.10;;;11.50;99.90;;;;;;5088960;28;20661;-73
2021/09/30 08:22:16;;;;;;;2.80;1.10;;;11.50;99.90;;;;;;5088962;28;20219;-73
2021/09/30 08:24:43;;;;;;;3.03;1.10;;;11.60;99.90;;;;;;5089123;28;20743;-74
2021/09/30 08:27:10;;;;;;;1.80;1.13;;;11.70;99.90;;;;;;5088723;28;20256;-74
2021/09/30 08:29:38;;;;;;;4.37;1.20;;;11.80;99.90;;;;;;5089339;28;20210;-74
2021/09/30 08:32:06;;;;;;;4.10;1.33;;;11.90;99.90;;;;;;5088667;28;20199;-74
2021/09/30 08:34:32;;;;;;;1.23;1.07;;;12.00;99.90;;;;;;5088969;28;20212;-74
2021/09/30 08:36:59;;;;;;;1.50;0.97;;;12.10;99.90;;;;;;5088915;28;20252;-74
2021/09/30 08:39:26;;;;;;;2.53;1.13;;;12.10;99.90;;;;;;5088206;28;20207;-74
2021/09/30 08:41:54;;;;;;;2.43;1.20;;;12.30;99.90;;;;;;5089167;28;20256;-74
2021/09/30 08:44:20;;;;;;;1.70;1.10;;;12.60;99.90;;;;;;5088668;28;20694;-74
2021/09/30 08:46:49;;;;;;;3.53;1.10;;;12.70;99.90;;;;;;5088664;28;20304;-74
2021/09/30 08:49:15;;;;;;;1.67;0.97;;;12.70;99.90;;;;;;5088312;28;20252;-73
2021/09/30 08:51:42;;;;;;;2.00;0.97;;;12.70;99.90;;;;;;5088823;28;20203;-74
2021/09/30 08:54:09;;;;;;;2.63;0.97;;;12.50;99.90;;;;;;5088873;28;20207;-74
2021/09/30 08:56:35;;;;;;;2.63;1.20;;;12.50;99.90;;;;;;5088938;28;20207;-74
2021/09/30 08:59:13;;;;;;;5.50;1.20;;;12.50;99.90;;;;;;5088234;28;20242;-74
2021/09/30 09:01:40;;;;;;;1.60;1.20;;;12.40;99.90;;;;;;5087839;28;20198;-74
2021/09/30 09:04:18;;;;;;;5.17;1.50;;;12.50;99.90;;;;;;5087943;28;20623;-74
2021/09/30 09:06:47;;;;;;;2.60;1.10;;;12.50;99.90;;;;;;5088252;28;20199;-74
2021/09/30 09:09:21;;;;;;;5.23;1.43;;;12.50;99.90;;;;;;5088178;28;20209;-73
2021/09/30 09:11:49;;;;;;;3.30;1.17;;;12.60;99.90;;;;;;5088359;28;20263;-73
2021/09/30 09:14:23;;;;;;;1.23;1.03;;;12.60;99.90;;;;;;5088915;28;20297;-74
2021/09/30 09:16:56;;;;;;;3.27;1.63;;;12.50;99.90;;;;;;5095679;28;20310;-74
2021/09/30 09:19:36;;;;;;;1.60;1.10;;;12.50;99.90;;;;;;5098389;28;20300;-74
2021/09/30 09:22:14;;;;;;;2.43;1.50;;;12.50;99.90;;;;;;5097400;28;20195;-74
2021/09/30 09:25:05;;;;;;;2.60;1.27;;;12.50;99.90;;;;;;5094107;28;20214;-74
2021/09/30 09:27:47;;;;;;;2.57;1.20;;;12.40;99.90;;;;;;5094874;28;20995;-74
2021/09/30 09:30:26;;;;;;;3.00;1.37;;;12.50;99.90;;;;;;5105147;28;20203;-74
2021/09/30 09:33:08;;;;;;;1.63;0.90;;;12.60;99.90;;;;;;5095779;28;20698;-74
2021/09/30 09:35:57;;;;;;;3.37;1.13;;;12.60;99.90;;;;;;5097823;28;20724;-74
2021/09/30 09:38:27;;;;;;;3.60;1.17;;;12.60;99.90;;;;;;5094754;28;20196;-74
2021/09/30 09:40:57;;;;;;;3.47;1.53;;;12.70;99.90;;;;;;5095734;28;20195;-74
2021/09/30 09:43:34;;;;;;;1.43;0.80;;;12.80;99.90;;;;;;5095098;28;20704;-74
2021/09/30 09:46:01;;;;;;;2.97;1.40;;;12.90;99.90;;;;;;5096202;28;20221;-74
2021/09/30 09:48:31;;;;;;;2.03;1.00;;;13.10;99.90;;;;;;5097472;28;20284;-74
2021/09/30 09:50:59;;;;;;;3.07;1.17;;;13.20;99.90;;;;;;5092652;28;20810;-73
2021/09/30 09:53:28;;;;;;;2.53;0.90;;;13.30;99.90;;;;;;5095130;28;20198;-74
2021/09/30 09:56:09;;;;;;;1.90;0.97;;;13.50;99.90;;;;;;5095584;28;20234;-74
2021/09/30 09:58:47;;;;;;;1.10;0.70;;;13.70;99.90;;;;;;5095842;28;20227;-74
2021/09/30 10:01:14;;;;;;;2.40;1.10;;;13.80;99.90;;;;;;5097089;28;20688;-74
2021/09/30 10:04:01;;;;;;;2.33;1.40;;;13.90;99.90;;;;;;5095803;28;20226;-74
2021/09/30 10:06:31;;;;;;;1.67;1.20;;;14.10;99.90;;;;;;5096754;28;20676;-74
2021/09/30 10:08:59;;;;;;;3.67;1.20;;;14.30;99.90;;;;;;5096547;28;20198;-74
2021/09/30 10:11:27;;;;;;;1.03;0.93;;;14.40;99.90;;;;;;5095211;28;20676;-73
2021/09/30 10:13:55;;;;;;;2.43;1.33;;;14.50;99.90;;;;;;5099376;28;20247;-73
2021/09/30 10:16:26;;;;;;;2.47;1.13;;;14.40;99.90;;;;;;5101952;28;20248;-74
2021/09/30 10:18:54;;;;;;;2.00;1.20;;;14.40;99.90;;;;;;5100963;27;20685;-74
2021/09/30 10:21:21;;;;;;;3.03;0.90;;;14.40;99.90;;;;;;5099876;28;20199;-74
2021/09/30 10:23:53;;;;;;;3.37;1.00;;;14.60;99.90;;;;;;5098441;28;20260;-73
2021/09/30 10:26:25;;;;;;;1.23;0.87;;;14.60;99.90;;;;;;5101742;28;20207;-74
2021/09/30 10:28:52;;;;;;;2.90;0.93;;;14.70;99.90;;;;;;5099078;28;20195;-74
2021/09/30 10:31:28;;;;;;;2.67;1.10;;;14.80;99.90;;;;;;5099669;28;20247;-73
2021/09/30 10:33:56;;;;;;;2.77;1.00;;;15.00;99.90;;;;;;5097642;28;20288;-74
2021/09/30 10:36:43;;;;;;;3.50;0.90;;;15.10;99.90;;;;;;5100679;28;20198;-74
2021/09/30 10:39:23;;;;;;;2.90;0.87;;;15.20;99.90;;;;;;5103282;28;20201;-74
2021/09/30 10:41:53;;;;;;;1.90;1.10;;;15.20;99.90;;;;;;5100514;28;20194;-74
2021/09/30 10:44:21;;;;;;;1.77;1.00;;;15.10;99.90;;;;;;5098956;28;20266;-74
2021/09/30 10:46:51;;;;;;;2.10;1.10;;;15.20;99.90;;;;;;5100887;28;20218;-74
2021/09/30 10:49:36;;;;;;;3.03;1.20;;;15.10;99.90;;;;;;5100029;28;20226;-74
2021/09/30 10:52:27;;;;;;;3.70;0.87;;;15.20;99.90;;;;;;5099872;28;20236;-74
2021/09/30 10:55:24;;;;;;;3.00;1.37;;;15.20;99.90;;;;;;5100525;28;20221;-74
2021/09/30 10:57:52;;;;;;;3.40;1.13;;;15.30;99.90;;;;;;5100561;28;20221;-74
2021/09/30 11:00:58;;;;;;;2.00;1.13;;;15.50;99.90;;;;;;5099083;28;20226;-74
2021/09/30 11:03:26;;;;;;;2.70;1.10;;;15.60;99.90;;;;;;5099948;28;20299;-74
2021/09/30 11:06:17;;;;;;;2.23;1.10;;;15.60;99.90;;;;;;5094695;28;20207;-73
2021/09/30 11:08:47;;;;;;;1.97;1.27;;;15.60;99.90;;;;;;5097439;28;20202;-74
2021/09/30 11:11:22;;;;;;;3.03;1.07;;;15.50;99.90;;;;;;5097024;28;20660;-74
2021/09/30 11:14:04;;;;;;;3.33;1.20;;;15.40;99.90;;;;;;5097987;28;20190;-74
2021/09/30 11:16:36;;;;;;;5.10;1.13;;;15.50;99.90;;;;;;5100083;28;20247;-74
2021/09/30 11:19:05;;;;;;;1.70;1.53;;;15.30;99.90;;;;;;5098036;27;20207;-74
2021/09/30 11:21:45;;;;;;;1.60;1.20;;;15.20;99.90;;;;;;5097688;28;20272;-74
2021/09/30 11:24:26;;;;;;;4.43;1.23;;;15.20;99.90;;;;;;5099350;28;20254;-74
2021/09/30 11:27:09;;;;;;;2.90;1.10;;;15.20;99.90;;;;;;5102821;28;20707;-73
2021/09/30 11:29:36;;;;;;;1.63;1.03;;;15.10;99.90;;;;;;5089103;28;20210;-74
2021/09/30 11:32:26;;;;;;;3.27;1.00;;;15.10;99.90;;;;;;5089313;28;20207;-74
2021/09/30 11:34:55;;;;;;;3.63;1.37;;;15.00;99.90;;;;;;5087918;28;20902;-74
2021/09/30 11:37:27;;;;;;;1.57;1.00;;;14.90;99.90;;;;;;5088769;28;20207;-74
2021/09/30 11:39:55;;;;;;;3.00;1.30;;;14.90;99.90;;;;;;5088423;28;20902;-74
2021/09/30 11:42:35;;;;;;;3.53;1.20;;;14.80;99.90;;;;;;5088681;28;20207;-74
2021/09/30 11:45:04;;;;;;;4.10;1.20;;;14.80;99.90;;;;;;5088508;28;20632;-74
2021/09/30 11:47:31;;;;;;;3.13;1.23;;;14.80;99.90;;;;;;5088671;28;20229;-73
2021/09/30 11:50:01;;;;;;;2.23;1.27;;;14.70;99.90;;;;;;5089160;28;20263;-74
2021/09/30 11:52:30;;;;;;;4.73;1.40;;;14.70;99.90;;;;;;5088816;28;20234;-74
2021/09/30 11:55:13;;;;;;;1.47;1.10;;;14.70;99.90;;;;;;5089038;28;20568;-74
2021/09/30 11:57:53;;;;;;;2.80;1.20;;;14.70;99.90;;;;;;5088523;28;20698;-73
2021/09/30 12:00:20;;;;;;;1.93;1.03;;;14.70;99.90;;;;;;5088707;28;20665;-74
2021/09/30 12:02:58;;;;;;;5.00;1.37;;;14.70;99.90;;;;;;5088957;28;20210;-74
2021/09/30 12:05:29;;;;;;;2.47;1.10;;;14.60;99.90;;;;;;5088564;28;20280;-74
2021/09/30 12:07:58;;;;;;;1.77;1.00;;;14.60;99.90;;;;;;5088954;28;21042;-74
2021/09/30 12:10:25;;;;;;;3.67;1.13;;;14.60;99.90;;;;;;5095647;27;20210;-73
2021/09/30 12:12:53;;;;;;;6.30;1.47;;;14.60;99.90;;;;;;5097723;28;20240;-74
2021/09/30 12:15:20;;;;;;;4.47;1.17;;;14.70;99.90;;;;;;5096978;28;20283;-73
2021/09/30 12:17:48;;;;;;;2.13;1.50;;;14.80;99.90;;;;;;5097072;28;20291;-73
2021/09/30 12:20:17;;;;;;;1.83;1.10;;;15.10;99.90;;;;;;5102409;28;20207;-74
2021/09/30 12:22:46;;;;;;;6.60;1.33;;;15.30;99.90;;;;;;5096646;27;20248;-73
2021/09/30 12:25:16;;;;;;;2.70;1.40;;;15.60;99.90;;;;;;5097181;28;20286;-74
2021/09/30 12:27:46;;;;;;;3.30;1.23;;;15.90;99.90;;;;;;5099103;28;20198;-74
2021/09/30 12:30:17;;;;;;;2.10;1.00;;;16.10;99.90;;;;;;5097457;28;20245;-74
2021/09/30 12:32:45;;;;;;;2.33;1.10;;;16.40;99.90;;;;;;5099619;28;20234;-73
2021/09/30 12:35:18;;;;;;;4.00;1.33;;;16.70;99.90;;;;;;5099300;28;20230;-73
2021/09/30 12:37:47;;;;;;;3.07;1.00;;;17.00;99.90;;;;;;5096476;28;20190;-74
2021/09/30 12:40:16;;;;;;;3.10;1.30;;;17.20;99.90;;;;;;5097707;28;20251;-74
2021/09/30 12:42:57;;;;;;;3.27;1.17;;;17.20;99.90;;;;;;5098167;28;20202;-74
2021/09/30 12:45:25;;;;;;;3.27;1.20;;;17.10;99.90;;;;;;5098232;28;20268;-74
2021/09/30 12:48:01;;;;;;;3.93;1.00;;;17.10;99.90;;;;;;5095909;28;20229;-73
2021/09/30 12:50:37;;;;;;;4.90;1.27;;;17.30;99.90;;;;;;5095820;28;20202;-74
2021/09/30 12:53:04;;;;;;;3.20;1.53;;;17.50;99.90;;;;;;5096245;28;20219;-74
2021/09/30 12:55:32;;;;;;;1.17;1.00;;;17.40;99.90;;;;;;5099109;28;20217;-74
2021/09/30 12:57:59;;;;;;;2.20;1.03;;;17.20;99.90;;;;;;5098794;28;20295;-74
2021/09/30 13:00:33;;;;;;;3.50;1.03;;;16.80;99.90;;;;;;5085697;28;20314;-74
2021/09/30 13:03:14;;;;;;;2.33;1.00;;;16.90;99.90;;;;;;5085109;28;20202;-74
2021/09/30 13:05:51;;;;;;;2.30;1.20;;;16.90;99.90;;;;;;5085782;28;20317;-74
2021/09/30 13:08:50;;;;;;;2.57;0.80;;;16.60;99.90;;;;;;5085979;28;20202;-74
2021/09/30 13:11:29;;;;;;;4.00;1.77;;;16.40;99.90;;;;;;5003100;28;20289;-74
2021/09/30 13:14:18;;;;;;;2.67;0.80;;;16.60;99.90;;;;;;5113373;27;20262;-74
2021/09/30 13:16:48;;;;;;;3.13;1.20;;;16.50;99.90;;;;;;5121620;27;20226;-74
2021/09/30 13:19:15;;;;;;;3.07;0.90;;;16.50;99.90;;;;;;5107099;28;20241;-70
2021/09/30 13:22:03;;;;;;;5.67;1.37;;;16.40;99.90;;;;;;5106879;28;20241;-74
2021/09/30 13:24:30;;;;;;;3.60;1.30;;;16.30;99.90;;;;;;5106059;28;20245;-74
2021/09/30 13:26:57;;;;;;;4.70;1.10;;;16.50;99.90;;;;;;5105470;28;20656;-72
2021/09/30 13:29:23;;;;;;;1.73;1.40;;;16.90;99.90;;;;;;5105941;28;20239;-74
2021/09/30 13:31:51;;;;;;;1.90;1.00;;;17.10;99.90;;;;;;5106350;28;20206;-74
2021/09/30 13:34:19;;;;;;;5.80;1.00;;;17.40;99.90;;;;;;5105654;28;20213;-74
2021/09/30 13:36:46;;;;;;;2.80;1.10;;;17.50;99.90;;;;;;5106769;28;20370;-74
2021/09/30 13:39:12;;;;;;;1.47;0.93;;;17.60;99.90;;;;;;5105772;28;20313;-74
2021/09/30 13:41:39;;;;;;;1.10;1.00;;;17.80;99.90;;;;;;5106113;28;20290;-73
2021/09/30 13:44:06;;;;;;;3.07;1.20;;;18.10;99.90;;;;;;5106231;28;20229;-74
2021/09/30 13:46:32;;;;;;;3.40;1.00;;;17.60;99.90;;;;;;5106724;28;20237;-74
2021/09/30 13:49:00;;;;;;;2.13;0.93;;;17.30;99.90;;;;;;5110733;28;20282;-74
2021/09/30 13:51:28;;;;;;;2.20;1.00;;;16.90;99.90;;;;;;5110281;28;20210;-73
2021/09/30 13:53:55;;;;;;;3.13;1.00;;;17.00;99.90;;;;;;5109895;28;20202;-71
2021/09/30 13:56:22;;;;;;;4.17;1.10;;;17.20;99.90;;;;;;5109637;28;20605;-75
2021/09/30 13:58:49;;;;;;;1.20;0.90;;;17.50;99.90;;;;;;5109670;28;20265;-74
2021/09/30 14:01:16;;;;;;;2.50;0.97;;;17.90;99.90;;;;;;5109542;28;20206;-73
2021/09/30 14:03:42;;;;;;;3.03;0.97;;;18.00;99.90;;;;;;5112655;27;20285;-73
2021/09/30 14:06:12;;;;;;;1.83;0.90;;;17.80;99.90;;;;;;5129673;27;20807;-73
2021/09/30 14:08:41;;;;;;;3.23;0.83;;;17.80;99.90;;;;;;5130229;27;20304;-73
2021/09/30 14:11:08;;;;;;;1.47;0.73;;;17.60;99.90;;;;;;5129883;27;20205;-73
2021/09/30 14:13:35;;;;;;;1.50;1.00;;;17.30;99.90;;;;;;5130305;27;20209;-74
2021/09/30 14:16:01;;;;;;;2.00;1.20;;;17.50;99.90;;;;;;5129980;27;20209;-73
2021/09/30 14:18:28;;;;;;;2.20;0.90;;;17.90;99.90;;;;;;5130610;27;20213;-74
2021/09/30 14:20:54;;;;;;;1.90;0.90;;;18.00;99.90;;;;;;5130569;27;20209;-73
2021/09/30 14:23:23;;;;;;;3.43;0.90;;;17.80;99.90;;;;;;5130153;27;20225;-73
2021/09/30 14:25:50;;;;;;;4.03;1.20;;;17.80;99.90;;;;;;5129986;27;20241;-73
2021/09/30 14:28:17;;;;;;;2.30;0.77;;;17.90;99.90;;;;;;5129613;27;20201;-73
2021/09/30 14:30:44;;;;;;;2.13;0.70;;;18.00;99.90;;;;;;5122889;27;20994;-73
2021/09/30 14:33:11;;;;;;;2.70;0.87;;;18.00;99.90;;;;;;5097509;28;20673;-73
2021/09/30 14:35:38;;;;;;;5.43;1.30;;;18.00;99.90;;;;;;5100945;28;20295;-73
2021/09/30 14:38:05;;;;;;;2.80;1.10;;;18.00;99.90;;;;;;5099929;28;20206;-73
2021/09/30 14:40:34;;;;;;;1.80;0.87;;;17.80;99.90;;;;;;5097320;28;20210;-74
2021/09/30 14:43:00;;;;;;;2.10;1.10;;;17.30;99.90;;;;;;5100498;28;20229;-73
2021/09/30 14:45:27;;;;;;;1.37;0.93;;;17.30;99.90;;;;;;5098196;28;20640;-73
2021/09/30 14:47:54;;;;;;;2.30;0.97;;;17.20;99.90;;;;;;5100767;28;21077;-73
2021/09/30 14:50:20;;;;;;;2.37;1.10;;;17.40;99.90;;;;;;5099155;28;20199;-73
2021/09/30 14:52:47;;;;;;;2.97;1.00;;;17.60;99.90;;;;;;5099089;28;20812;-73
2021/09/30 14:55:13;;;;;;;3.93;1.30;;;17.70;99.90;;;;;;5104504;28;20213;-73
2021/09/30 14:57:42;;;;;;;1.60;0.97;;;17.60;99.90;;;;;;5109819;27;20206;-73
2021/09/30 15:00:12;;;;;;;1.33;0.93;;;17.70;99.90;;;;;;5122383;27;20290;-74
2021/09/30 15:02:39;;;;;;;3.27;1.07;;;17.60;99.90;;;;;;5113017;27;20213;-74
2021/09/30 15:05:07;;;;;;;3.10;1.20;;;17.40;99.90;;;;;;5108342;28;20242;-73
2021/09/30 15:07:36;;;;;;;2.17;0.97;;;17.10;99.90;;;;;;5108138;28;20284;-73
2021/09/30 15:10:03;;;;;;;3.20;1.07;;;16.90;99.90;;;;;;5110907;27;20214;-74
2021/09/30 15:12:30;;;;;;;7.27;1.20;;;16.80;99.90;;;;;;5127773;27;20215;-75
2021/09/30 15:14:59;;;;;;;1.70;1.20;;;16.70;99.90;;;;;;5128609;27;20621;-74
2021/09/30 15:17:27;;;;;;;2.87;1.30;;;16.50;99.90;;;;;;5108134;28;20294;-75
2021/09/30 15:20:11;;;;;;;2.40;1.10;;;16.40;99.90;;;;;;5107562;28;20206;-75
2021/09/30 15:22:43;;;;;;;2.97;1.10;;;16.40;99.90;;;;;;5108220;28;20226;-74
2021/09/30 15:25:11;;;;;;;4.13;0.90;;;16.30;99.90;;;;;;5107804;28;20642;-74
2021/09/30 15:27:39;;;;;;;2.10;0.80;;;16.20;99.90;;;;;;5107880;28;20237;-74
2021/09/30 15:30:08;;;;;;;3.50;1.47;;;16.20;99.90;;;;;;5107793;28;20206;-74